createdAt,value
2023-05-25T00:01:24.524Z,99490.91
2023-05-25T00:04:11.487Z,99446.56
2023-05-25T00:06:57.940Z,99461.47
2023-05-25T00:09:45.973Z,99489.00
2023-05-25T00:12:32.887Z,99462.66
2023-05-25T00:15:19.454Z,99450.44
2023-05-25T00:18:05.965Z,99479.69
2023-05-25T00:20:55.486Z,99463.97
2023-05-25T00:23:42.683Z,99465.75
2023-05-25T00:26:28.916Z,99486.59
2023-05-25T00:29:15.487Z,99453.44
2023-05-25T00:32:02.787Z,99409.44
2023-05-25T00:34:49.425Z,99484.84
2023-05-25T00:37:36.976Z,99478.75
2023-05-25T00:40:23.452Z,99461.31
2023-05-25T00:43:12.200Z,99491.63
2023-05-25T00:45:58.905Z,99420.41
2023-05-25T00:48:45.791Z,99484.47
2023-05-25T00:51:33.204Z,99426.28
2023-05-25T00:54:19.549Z,99455.59
2023-05-25T00:57:07.877Z,99497.81
2023-05-25T00:59:58.075Z,99484.63
2023-05-25T01:02:48.374Z,99477.75
2023-05-25T01:05:36.033Z,99494.16
2023-05-25T01:08:24.295Z,99495.94
2023-05-25T01:11:14.590Z,99474.97
2023-05-25T01:14:02.392Z,99470.69
2023-05-25T01:16:50.037Z,99445.66
2023-05-25T01:19:40.961Z,99418.75
2023-05-25T01:22:38.391Z,99462.50
2023-05-25T01:25:36.607Z,99489.22
2023-05-25T01:28:30.799Z,99472.28
2023-05-25T01:31:20.832Z,99491.06
2023-05-25T01:34:07.686Z,99480.06
2023-05-25T01:36:54.460Z,99472.38
2023-05-25T01:39:41.510Z,99474.09
2023-05-25T01:42:27.732Z,99459.22
2023-05-25T01:45:14.852Z,99451.44
2023-05-25T01:48:24.320Z,99482.03
2023-05-25T01:51:32.378Z,99487.56
2023-05-25T01:54:21.281Z,99401.13
2023-05-25T01:57:12.556Z,99462.66
2023-05-25T02:00:02.505Z,99426.28
2023-05-25T02:03:01.247Z,99479.81
2023-05-25T02:05:48.229Z,99469.25
2023-05-25T02:08:34.518Z,99446.59
2023-05-25T02:11:21.719Z,99444.00
2023-05-25T02:14:09.062Z,99452.66
2023-05-25T02:16:55.298Z,99463.97
2023-05-25T02:19:41.804Z,99470.97
2023-05-25T02:22:28.394Z,99456.28
2023-05-25T02:25:14.655Z,99447.53
2023-05-25T02:28:01.000Z,99454.38
2023-05-25T02:30:47.605Z,99462.94
2023-05-25T02:33:34.069Z,99407.34
2023-05-25T02:36:21.077Z,99426.72
2023-05-25T02:39:07.490Z,99436.09
2023-05-25T02:41:54.298Z,99448.88
2023-05-25T02:44:40.897Z,99465.06
2023-05-25T02:47:27.613Z,99456.34
2023-05-25T02:50:13.891Z,99458.06
2023-05-25T02:53:04.862Z,99451.88
2023-05-25T02:55:51.586Z,99469.97
2023-05-25T02:58:42.463Z,99482.75
2023-05-25T03:01:35.041Z,99480.91
2023-05-25T03:04:21.978Z,99463.50
2023-05-25T03:07:08.332Z,99485.94
2023-05-25T03:09:54.646Z,99483.69
2023-05-25T03:12:42.177Z,99478.31
2023-05-25T03:15:28.727Z,99480.88
2023-05-25T03:18:16.173Z,99445.09
2023-05-25T03:21:03.388Z,99458.78
2023-05-25T03:23:50.639Z,99481.22
2023-05-25T03:26:37.460Z,99493.88
2023-05-25T03:29:27.022Z,99467.75
2023-05-25T03:32:13.796Z,99495.69
2023-05-25T03:35:00.383Z,99476.56
2023-05-25T03:37:47.050Z,99502.38
2023-05-25T03:40:33.531Z,99459.97
2023-05-25T03:43:19.677Z,99479.91
2023-05-25T03:46:07.879Z,99483.28
2023-05-25T03:48:54.200Z,99474.59
2023-05-25T03:51:41.371Z,99480.63
2023-05-25T03:54:27.977Z,99493.59
2023-05-25T03:57:14.784Z,99493.09
2023-05-25T04:00:01.201Z,99481.81
2023-05-25T04:02:47.755Z,99507.78
2023-05-25T04:05:34.121Z,99462.72
2023-05-25T04:08:20.634Z,99517.72
2023-05-25T04:11:07.169Z,99530.94
2023-05-25T04:13:53.688Z,99504.00
2023-05-25T04:16:42.819Z,99496.34
2023-05-25T04:19:31.029Z,99527.03
2023-05-25T04:22:17.778Z,99510.19
2023-05-25T04:25:08.778Z,99515.97
2023-05-25T04:27:56.719Z,99524.59
2023-05-25T04:31:03.710Z,99531.72
2023-05-25T04:34:23.293Z,99482.69
2023-05-25T04:37:19.548Z,99535.91
2023-05-25T04:40:14.085Z,99516.44
2023-05-25T04:43:01.940Z,99516.88
2023-05-25T04:45:48.320Z,99524.03
2023-05-25T04:48:35.130Z,99515.47
2023-05-25T04:51:22.890Z,99503.63
2023-05-25T04:54:09.351Z,99533.38
2023-05-25T04:56:55.694Z,99534.81
2023-05-25T04:59:42.063Z,99512.03
2023-05-25T05:02:28.349Z,99507.69
2023-05-25T05:05:15.001Z,99510.22
2023-05-25T05:08:03.534Z,99529.44
2023-05-25T05:10:50.038Z,99517.97
2023-05-25T05:13:37.070Z,99521.81
2023-05-25T05:16:24.135Z,99513.31
2023-05-25T05:19:10.875Z,99520.78
2023-05-25T05:21:57.949Z,99533.69
2023-05-25T05:24:46.098Z,99539.75
2023-05-25T05:27:40.338Z,99552.59
2023-05-25T05:30:44.127Z,99560.56
2023-05-25T05:33:31.340Z,99571.06
2023-05-25T05:36:19.336Z,99542.50
2023-05-25T05:39:06.045Z,99547.94
2023-05-25T05:41:53.852Z,99570.22
2023-05-25T05:44:40.167Z,99540.16
2023-05-25T05:47:27.026Z,99555.38
2023-05-25T05:50:13.695Z,99549.53
2023-05-25T05:53:01.076Z,99548.91
2023-05-25T05:55:49.278Z,99570.81
2023-05-25T05:58:38.449Z,99576.06
2023-05-25T06:01:25.409Z,99575.28
2023-05-25T06:04:12.088Z,99565.81
2023-05-25T06:06:59.172Z,99584.81
2023-05-25T06:09:45.827Z,99596.91
2023-05-25T06:12:33.628Z,99580.44
2023-05-25T06:15:20.645Z,99585.63
2023-05-25T06:18:09.322Z,99592.50
2023-05-25T06:20:55.932Z,99595.16
2023-05-25T06:23:42.925Z,99585.63
2023-05-25T06:26:29.407Z,99598.66
2023-05-25T06:29:17.147Z,99580.47
2023-05-25T06:32:04.246Z,99571.84
2023-05-25T06:34:51.016Z,99555.41
2023-05-25T06:37:38.606Z,99607.28
2023-05-25T06:40:26.796Z,99598.66
2023-05-25T06:43:13.362Z,99593.47
2023-05-25T06:46:22.906Z,99580.50
2023-05-25T06:49:09.514Z,99615.09
2023-05-25T06:51:56.332Z,99610.72
2023-05-25T06:54:42.880Z,99604.59
2023-05-25T06:57:29.615Z,99627.97
2023-05-25T07:00:17.427Z,99589.06
2023-05-25T07:03:03.739Z,99605.44
2023-05-25T07:05:50.407Z,99593.34
2023-05-25T07:08:36.758Z,99596.75
2023-05-25T07:11:23.261Z,99617.47
2023-05-25T07:14:09.585Z,99586.25
2023-05-25T07:16:56.186Z,99602.66
2023-05-25T07:19:43.326Z,99618.97
2023-05-25T07:22:29.797Z,99611.84
2023-05-25T07:25:16.457Z,99589.13
2023-05-25T07:28:03.124Z,99603.91
2023-05-25T07:30:50.010Z,99591.81
2023-05-25T07:33:36.237Z,99596.13
2023-05-25T07:36:24.857Z,99601.41
2023-05-25T07:39:11.481Z,99605.56
2023-05-25T07:41:57.966Z,99609.59
2023-05-25T07:44:44.343Z,99609.56
2023-05-25T07:47:30.776Z,99600.84
2023-05-25T07:50:17.641Z,99593.13
2023-05-25T07:53:04.249Z,99613.69
2023-05-25T07:55:50.890Z,99625.72
2023-05-25T07:58:37.573Z,99602.16
2023-05-25T08:01:26.769Z,99581.44
2023-05-25T08:04:13.814Z,99604.25
2023-05-25T08:07:00.396Z,99603.03
2023-05-25T08:09:47.223Z,99615.91
2023-05-25T08:12:47.126Z,99598.75
2023-05-25T08:15:35.427Z,99614.44
2023-05-25T08:18:22.382Z,99576.09
2023-05-25T08:21:08.738Z,99586.28
2023-05-25T08:23:56.105Z,99595.31
2023-05-25T08:26:53.774Z,99567.56
2023-05-25T08:29:40.836Z,99575.16
2023-05-25T08:32:27.515Z,99603.75
2023-05-25T08:35:14.430Z,99594.97
2023-05-25T08:38:00.861Z,99618.00
2023-05-25T08:40:53.132Z,99591.66
2023-05-25T08:43:41.966Z,99613.34
2023-05-25T08:46:31.342Z,99624.00
2023-05-25T08:49:18.070Z,99620.47
2023-05-25T08:52:05.468Z,99638.22
2023-05-25T08:54:55.215Z,99632.25
2023-05-25T08:58:16.993Z,99626.59
2023-05-25T09:01:08.428Z,99622.28
2023-05-25T09:03:56.835Z,99591.97
2023-05-25T09:06:54.037Z,99599.19
2023-05-25T09:09:48.571Z,99551.66
2023-05-25T09:12:36.379Z,99609.28
2023-05-25T09:15:22.708Z,99607.03
2023-05-25T09:18:10.368Z,99588.97
2023-05-25T09:20:58.922Z,99605.66
2023-05-25T09:23:46.278Z,99598.22
2023-05-25T09:26:33.868Z,99601.53
2023-05-25T09:29:20.880Z,99587.06
2023-05-25T09:32:07.896Z,99615.09
2023-05-25T09:34:56.583Z,99605.38
2023-05-25T09:37:44.322Z,99614.19
2023-05-25T09:40:33.464Z,99611.00
2023-05-25T09:43:32.380Z,99596.84
2023-05-25T09:46:26.328Z,99563.56
2023-05-25T09:49:12.692Z,99602.03
2023-05-25T09:52:00.554Z,99608.56
2023-05-25T09:54:51.725Z,99618.06
2023-05-25T09:57:38.138Z,99607.28
2023-05-25T10:00:25.699Z,99617.94
2023-05-25T10:03:15.014Z,99602.34
2023-05-25T10:06:03.141Z,99610.41
2023-05-25T10:08:50.686Z,99595.53
2023-05-25T10:11:40.154Z,99601.03
2023-05-25T10:14:29.353Z,99623.16
2023-05-25T10:17:23.044Z,99611.28
2023-05-25T10:20:10.703Z,99605.66
2023-05-25T10:22:59.752Z,99575.81
2023-05-25T10:25:53.769Z,99597.88
2023-05-25T10:28:44.449Z,99587.28
2023-05-25T10:31:33.982Z,99591.28
2023-05-25T10:34:22.072Z,99587.88
2023-05-25T10:37:08.969Z,99595.78
2023-05-25T10:39:57.356Z,99557.09
2023-05-25T10:42:45.643Z,99582.91
2023-05-25T10:45:32.897Z,99541.66
2023-05-25T10:48:19.243Z,99585.41
2023-05-25T10:51:08.842Z,99599.31
2023-05-25T10:54:02.099Z,99588.88
2023-05-25T10:57:18.323Z,99608.00
2023-05-25T11:00:07.129Z,99600.06
2023-05-25T11:02:55.515Z,99611.31
2023-05-25T11:05:50.504Z,99591.66
2023-05-25T11:08:51.073Z,99614.75
2023-05-25T11:11:43.516Z,99605.88
2023-05-25T11:14:31.630Z,99605.72
2023-05-25T11:17:22.322Z,99579.19
2023-05-25T11:20:21.543Z,99582.25
2023-05-25T11:23:24.019Z,99590.34
2023-05-25T11:26:21.898Z,99592.94
2023-05-25T11:29:14.451Z,99585.41
2023-05-25T11:32:01.128Z,99565.06
2023-05-25T11:34:48.514Z,99596.88
2023-05-25T11:37:34.965Z,99570.91
2023-05-25T11:40:24.557Z,99566.38
2023-05-25T11:43:12.662Z,99574.44
2023-05-25T11:46:00.457Z,99574.00
2023-05-25T11:48:52.117Z,99570.03
2023-05-25T11:51:38.707Z,99577.38
2023-05-25T11:54:27.665Z,99561.13
2023-05-25T11:57:16.941Z,99582.72
2023-05-25T12:00:07.098Z,99579.59
2023-05-25T12:02:53.574Z,99580.19
2023-05-25T12:05:40.131Z,99577.66
2023-05-25T12:08:34.080Z,99597.59
2023-05-25T12:11:38.311Z,99576.25
2023-05-25T12:14:25.508Z,99583.50
2023-05-25T12:17:12.146Z,99589.41
2023-05-25T12:19:58.687Z,99584.38
2023-05-25T12:22:46.649Z,99559.75
2023-05-25T12:25:49.160Z,99571.84
2023-05-25T12:28:36.389Z,99564.28
2023-05-25T12:31:27.479Z,99552.69
2023-05-25T12:34:18.090Z,99587.19
2023-05-25T12:37:04.706Z,99573.69
2023-05-25T12:39:51.388Z,99581.78
2023-05-25T12:42:37.629Z,99578.06
2023-05-25T12:45:24.557Z,99579.63
2023-05-25T12:48:11.215Z,99555.22
2023-05-25T12:50:58.413Z,99543.16
2023-05-25T12:53:52.477Z,99571.34
2023-05-25T12:56:57.591Z,99571.16
2023-05-25T12:59:46.216Z,99565.75
2023-05-25T13:02:32.870Z,99560.91
2023-05-25T13:05:27.823Z,99540.44
2023-05-25T13:08:14.728Z,99544.44
2023-05-25T13:11:03.560Z,99551.38
2023-05-25T13:13:50.172Z,99539.47
2023-05-25T13:16:36.521Z,99558.34
2023-05-25T13:19:24.733Z,99535.78
2023-05-25T13:22:11.414Z,99548.16
2023-05-25T13:24:58.001Z,99525.03
2023-05-25T13:27:46.294Z,99552.84
2023-05-25T13:30:32.436Z,99559.63
2023-05-25T13:33:19.054Z,99559.59
2023-05-25T13:36:08.646Z,99540.44
2023-05-25T13:38:55.332Z,99560.88
2023-05-25T13:41:41.908Z,99551.31
2023-05-25T13:44:28.316Z,99549.28
2023-05-25T13:47:14.947Z,99555.47
2023-05-25T13:50:01.494Z,99557.47
2023-05-25T13:52:49.108Z,99556.53
2023-05-25T13:55:37.347Z,99566.91
2023-05-25T13:58:25.275Z,99531.00
2023-05-25T14:01:11.855Z,99552.09
2023-05-25T14:03:59.846Z,99547.69
2023-05-25T14:06:46.559Z,99543.16
2023-05-25T14:09:33.148Z,99558.53
2023-05-25T14:12:19.535Z,99544.88
2023-05-25T14:15:07.291Z,99550.81
2023-05-25T14:17:55.795Z,99543.78
2023-05-25T14:20:43.972Z,99537.25
2023-05-25T14:23:31.604Z,99519.47
2023-05-25T14:26:18.568Z,99540.84
2023-05-25T14:29:04.980Z,99529.38
2023-05-25T14:31:51.629Z,99538.34
2023-05-25T14:34:37.915Z,99533.03
2023-05-25T14:37:24.223Z,99541.81
2023-05-25T14:40:11.393Z,99544.00
2023-05-25T14:42:58.022Z,99536.03
2023-05-25T14:45:44.672Z,99539.59
2023-05-25T14:48:33.481Z,99534.41
2023-05-25T14:51:20.106Z,99544.75
2023-05-25T14:54:07.794Z,99540.25
2023-05-25T14:56:54.079Z,99518.41
2023-05-25T14:59:40.824Z,99534.94
2023-05-25T15:02:27.406Z,99542.13
2023-05-25T15:05:14.023Z,99537.34
2023-05-25T15:08:00.469Z,99511.22
2023-05-25T15:10:46.946Z,99528.19
2023-05-25T15:13:33.529Z,99547.19
2023-05-25T15:16:20.171Z,99540.75
2023-05-25T15:19:09.210Z,99526.41
2023-05-25T15:21:57.665Z,99544.75
2023-05-25T15:24:44.095Z,99547.88
2023-05-25T15:27:32.148Z,99492.78
2023-05-25T15:30:19.318Z,99525.81
2023-05-25T15:33:05.608Z,99522.81
2023-05-25T15:35:52.085Z,99524.34
2023-05-25T15:38:38.684Z,99512.59
2023-05-25T15:41:25.622Z,99535.25
2023-05-25T15:44:12.793Z,99527.81
2023-05-25T15:46:59.395Z,99540.56
2023-05-25T15:49:45.916Z,99539.59
2023-05-25T15:52:32.603Z,99534.72
2023-05-25T15:55:19.078Z,99526.16
2023-05-25T15:58:05.329Z,99521.78
2023-05-25T16:00:51.698Z,99518.00
2023-05-25T16:03:38.219Z,99528.19
2023-05-25T16:06:24.815Z,99491.66
2023-05-25T16:09:11.304Z,99529.56
2023-05-25T16:11:58.035Z,99514.94
2023-05-25T16:14:44.387Z,99528.50
2023-05-25T16:17:30.826Z,99527.34
2023-05-25T16:20:17.348Z,99519.56
2023-05-25T16:23:04.103Z,99488.56
2023-05-25T16:25:50.926Z,99526.66
2023-05-25T16:28:37.549Z,99519.88
2023-05-25T16:31:23.926Z,99514.59
2023-05-25T16:34:10.560Z,99491.47
2023-05-25T16:36:57.042Z,99533.78
2023-05-25T16:39:43.610Z,99524.41
2023-05-25T16:42:29.866Z,99517.38
2023-05-25T16:45:16.269Z,99518.13
2023-05-25T16:48:03.166Z,99514.91
2023-05-25T16:50:49.511Z,99507.25
2023-05-25T16:53:35.841Z,99515.06
2023-05-25T16:56:24.628Z,99509.19
2023-05-25T16:59:11.002Z,99506.69
2023-05-25T17:01:57.619Z,99523.06
2023-05-25T17:04:44.709Z,99502.72
2023-05-25T17:07:31.016Z,99515.28
2023-05-25T17:10:17.384Z,99517.22
2023-05-25T17:13:03.579Z,99513.78
2023-05-25T17:15:50.120Z,99523.06
2023-05-25T17:18:36.413Z,99516.25
2023-05-25T17:21:23.041Z,99500.75
2023-05-25T17:24:10.241Z,99503.25
2023-05-25T17:26:56.682Z,99517.47
2023-05-25T17:29:43.373Z,99483.00
2023-05-25T17:32:29.653Z,99518.63
2023-05-25T17:35:16.200Z,99505.78
2023-05-25T17:38:02.511Z,99497.28
2023-05-25T17:40:50.235Z,99522.03
2023-05-25T17:43:36.918Z,99517.81
2023-05-25T17:46:23.217Z,99502.25
2023-05-25T17:49:09.754Z,99517.88
2023-05-25T17:51:56.001Z,99521.47
2023-05-25T17:54:42.256Z,99519.09
2023-05-25T17:57:28.774Z,99523.53
2023-05-25T18:00:15.574Z,99513.22
2023-05-25T18:03:02.272Z,99510.22
2023-05-25T18:05:48.918Z,99531.19
2023-05-25T18:08:35.781Z,99504.38
2023-05-25T18:11:23.317Z,99530.63
2023-05-25T18:14:09.545Z,99539.56
2023-05-25T18:16:55.830Z,99527.63
2023-05-25T18:19:42.367Z,99532.28
2023-05-25T18:22:28.766Z,99522.91
2023-05-25T18:25:15.349Z,99534.19
2023-05-25T18:28:01.810Z,99538.94
2023-05-25T18:30:48.590Z,99516.91
2023-05-25T18:33:34.998Z,99521.66
2023-05-25T18:36:21.319Z,99525.53
2023-05-25T18:39:07.882Z,99506.97
2023-05-25T18:41:54.151Z,99534.16
2023-05-25T18:44:40.825Z,99526.66
2023-05-25T18:47:27.428Z,99537.25
2023-05-25T18:50:13.936Z,99547.72
2023-05-25T18:53:02.147Z,99545.47
2023-05-25T18:55:48.713Z,99549.22
2023-05-25T18:58:35.413Z,99527.09
2023-05-25T19:01:23.794Z,99536.03
2023-05-25T19:04:10.512Z,99537.06
2023-05-25T19:06:56.762Z,99550.09
2023-05-25T19:09:43.227Z,99553.00
2023-05-25T19:12:29.856Z,99530.69
2023-05-25T19:15:16.108Z,99550.84
2023-05-25T19:18:03.973Z,99535.13
2023-05-25T19:20:50.631Z,99548.50
2023-05-25T19:23:36.883Z,99547.06
2023-05-25T19:26:23.472Z,99568.09
2023-05-25T19:29:09.637Z,99568.56
2023-05-25T19:31:55.976Z,99555.28
2023-05-25T19:34:42.501Z,99555.19
2023-05-25T19:37:28.817Z,99545.50
2023-05-25T19:40:15.750Z,99559.84
2023-05-25T19:43:02.165Z,99584.50
2023-05-25T19:45:48.854Z,99582.25
2023-05-25T19:48:35.272Z,99580.59
2023-05-25T19:51:21.811Z,99586.16
2023-05-25T19:54:08.305Z,99578.63
2023-05-25T19:56:55.026Z,99586.41
2023-05-25T19:59:41.674Z,99583.09
2023-05-25T20:02:28.223Z,99588.47
2023-05-25T20:05:14.716Z,99593.06
2023-05-25T20:08:01.399Z,99594.13
2023-05-25T20:10:47.965Z,99593.28
2023-05-25T20:13:34.223Z,99585.78
2023-05-25T20:16:21.117Z,99579.06
2023-05-25T20:19:07.883Z,99600.69
2023-05-25T20:21:54.805Z,99593.03
2023-05-25T20:24:41.120Z,99574.94
2023-05-25T20:27:27.948Z,99594.03
2023-05-25T20:30:15.683Z,99606.28
2023-05-25T20:33:02.248Z,99613.31
2023-05-25T20:35:49.179Z,99561.63
2023-05-25T20:38:35.759Z,99618.72
2023-05-25T20:41:22.767Z,99609.28
2023-05-25T20:44:10.032Z,99602.47
2023-05-25T20:46:56.117Z,99614.53
2023-05-25T20:49:42.582Z,99590.44
2023-05-25T20:52:29.084Z,99627.66
2023-05-25T20:55:15.955Z,99611.28
2023-05-25T20:58:02.518Z,99625.16
2023-05-25T21:00:49.812Z,99627.84
2023-05-25T21:03:36.263Z,99629.56
2023-05-25T21:06:22.749Z,99625.31
2023-05-25T21:09:09.421Z,99635.66
2023-05-25T21:11:55.825Z,99600.25
2023-05-25T21:14:42.175Z,99634.88
2023-05-25T21:17:28.459Z,99631.41
2023-05-25T21:20:15.517Z,99634.06
2023-05-25T21:23:02.574Z,99618.50
2023-05-25T21:25:49.343Z,99604.69
2023-05-25T21:28:36.047Z,99650.50
2023-05-25T21:31:26.390Z,99633.25
2023-05-25T21:34:12.999Z,99635.84
2023-05-25T21:36:59.412Z,99646.22
2023-05-25T21:39:45.889Z,99647.97
2023-05-25T21:42:32.314Z,99635.00
2023-05-25T21:45:18.625Z,99639.31
2023-05-25T21:48:05.296Z,99657.50
2023-05-25T21:50:53.008Z,99659.22
2023-05-25T21:53:39.327Z,99667.03
2023-05-25T21:56:26.612Z,99665.31
2023-05-25T21:59:13.272Z,99653.19
2023-05-25T22:02:00.377Z,99649.69
2023-05-25T22:04:47.092Z,99674.78
2023-05-25T22:07:33.628Z,99675.63
2023-05-25T22:10:19.870Z,99653.94
2023-05-25T22:13:06.083Z,99677.31
2023-05-25T22:15:52.651Z,99661.69
2023-05-25T22:18:38.820Z,99685.94
2023-05-25T22:21:25.719Z,99676.44
2023-05-25T22:24:12.405Z,99669.44
2023-05-25T22:26:58.897Z,99692.78
2023-05-25T22:29:45.466Z,99692.78
2023-05-25T22:32:32.384Z,99686.72
2023-05-25T22:35:19.110Z,99641.69
2023-05-25T22:38:05.701Z,99633.75
2023-05-25T22:40:52.053Z,99695.25
2023-05-25T22:43:38.469Z,99696.94
2023-05-25T22:46:25.070Z,99700.38
2023-05-25T22:49:11.847Z,99705.53
2023-05-25T22:51:58.253Z,99691.66
2023-05-25T22:54:44.886Z,99704.63
2023-05-25T22:57:31.388Z,99708.19
2023-05-25T23:00:17.929Z,99691.63
2023-05-25T23:03:04.591Z,99696.78
2023-05-25T23:05:51.061Z,99701.19
2023-05-25T23:08:37.626Z,99686.34
2023-05-25T23:11:25.450Z,99709.69
2023-05-25T23:14:12.107Z,99712.25
2023-05-25T23:16:58.601Z,99714.91
2023-05-25T23:19:45.098Z,99706.16
2023-05-25T23:22:31.467Z,99713.16
2023-05-25T23:25:18.041Z,99684.44
2023-05-25T23:28:04.553Z,99687.81
2023-05-25T23:30:50.901Z,99709.47
2023-05-25T23:33:37.399Z,99706.91
2023-05-25T23:36:26.101Z,99671.41
2023-05-25T23:39:12.976Z,99697.34
2023-05-25T23:41:59.326Z,99705.16
2023-05-25T23:44:46.165Z,99677.44
2023-05-25T23:47:32.769Z,99706.97
2023-05-25T23:50:18.992Z,99704.34
2023-05-25T23:53:05.436Z,99723.38
2023-05-25T23:55:52.021Z,99725.84
2023-05-25T23:58:38.323Z,99689.47
